hero-logo

Top 15 Knowers of CL Colgate-Palmolive Co - 2017-07-25

Rank Fund Result (K)
1 Loomis Sayles Co L P $4,325
2 Fiera Capital Corp $2,093
3 Confluence Investment Management Llc $1,596
4 Suvretta Capital Management Llc $1,500
5 Squarepoint Ops Llc $1,365
6 Starboard Value Lp $1,306
7 Envestnet Asset Management Inc $1,053
8 Caxton Associates Lp $891
9 United Capital Financial Advisers Llc $878
10 Highbridge Capital Management Llc $861
11 Ahl Partners Llp $808
12 Hgk Asset Management Inc $771
13 Bluefin Trading Llc $726
14 Northwestern Mutual Investment Management Company Llc $667
15 Vantage Investment Partners Llc $601
Price Chart and News From Google Finance for CL Colgate-Palmolive Co
Owner Date Shares Change Price Change Result (K)
Acrospire Investment Management Llc 2017-03-31 -200 $7.75 $-1
Advantage Investment Management Llc 2017-03-31 266 $7.75 $2
Ae Wealth Management Llc 2017-03-31 5,476 $7.75 $42
Ahl Partners Llp 2017-03-31 104,326 $7.75 $808
Alliance Wealth Management Group 2017-03-31 0 $7.75 $0
Alpine Partners Vi Llc 2017-03-31 4,874 $7.75 $37
Amalgamated Bank 2017-03-31 -2,191 $7.75 $-16
American Trust Investment Advisors Llc 2017-03-31 0 $7.75 $0
Amf Pensionsforsakring Ab 2017-03-31 27,079 $7.75 $209
Ancora Advisors Llc 2017-03-31 -199 $7.75 $-1
Aperio Group Llc 2017-03-31 24,305 $7.75 $188
Archford Capital Strategies Llc 2017-03-31 80 $7.75 $0
Argi Investment Services Llc 2017-03-31 1,421 $7.75 $11
Arrow Financial Corp 2017-03-31 -170 $7.75 $-1
Arrowpoint Asset Management Llc 2017-03-31 0 $7.75 $0
A R T Advisors Llc 2017-03-31 -26,700 $7.75 $-206
Assenagon Asset Management S A 2017-03-31 -199,767 $7.75 $-1,548
Assetmark Inc 2017-03-31 75 $7.75 $0
Atlantic Trust Llc 2017-03-31 499 $7.75 $3
Aua Capital Management Llc 2017-03-31 0 $7.75 $0
Bahl Gaynor Inc 2017-03-31 -1,593 $7.75 $-12
Balentine Llc 2017-03-31 0 $7.75 $0
Beacon Financial Group 2017-06-30 1 $0.94 $0
Beacon Trust Co 2017-03-31 -217 $7.75 $-1
Birmingham Capital Management Co Inc Al 2017-03-31 0 $7.75 $0
Blair William Co Il 2017-03-31 6,441 $7.75 $49
Bluefin Trading Llc 2017-03-31 93,787 $7.75 $726
Bokf Na 2017-03-31 -295 $7.75 $-2
Bontempo Ohly Capital Mgmt Llc 2017-03-31 27,812 $7.75 $215
Boston Common Asset Management Llc 2017-03-31 11,630 $7.75 $90
Boston Private Wealth Llc 2017-03-31 -37,608 $7.75 $-291
Bowen Hanes Co Inc 2017-03-31 -3,090 $7.75 $-23
Bragg Financial Advisors Inc 2017-03-31 -1,120 $7.75 $-8
Bridgeway Capital Management Inc 2017-03-31 28,540 $7.75 $221
Brinker Capital Inc 2017-03-31 9,597 $7.75 $74
Broderick Brian C 2017-03-31 -514 $7.75 $-3
Brown Brothers Harriman Co 2017-03-31 -420 $7.75 $-3
B S Pension Fund Trustee Ltd Acting For The British Steel P 2017-03-31 -2,847 $7.75 $-22
Bush Odonnell Investment Advisors Inc 2017-03-31 1,605 $7.75 $12
California State Teachers Retirement System 2017-03-31 -79,800 $7.75 $-618
Camden National Bank 2017-03-31 -10 $7.75 $0
Canandaigua National Bank Trust Co 2017-03-31 -268 $7.75 $-2
Capital Guardian Trust Co 2017-03-31 512 $7.75 $3
Capstone Investment Advisors Llc 2017-03-31 -43,972 $7.75 $-340
Carlson Capital L P 2017-03-31 -55,100 $7.75 $-427
Catamount Wealth Management 2017-03-31 0 $7.75 $0
Caxton Associates Lp 2017-03-31 115,000 $7.75 $891
Cetera Advisor Networks Llc 2017-03-31 -2,588 $7.75 $-20
Cetera Advisors Llc 2017-03-31 1,091 $7.75 $8
Cetera Investment Advisers 2017-03-31 2,754 $7.75 $21
Chilton Investment Co Llc 2017-03-31 -195,220 $7.75 $-1,512
Clear Perspective Advisors Llc 2017-03-31 0 $7.75 $0
Cognios Capital Llc 2017-03-31 -53,003 $7.75 $-410
Colony Group Llc 2017-03-31 -850 $7.75 $-6
Compagnie Lombard Odier Scma 2017-03-31 -24,600 $7.75 $-190
Confluence Investment Management Llc 2017-03-31 206,048 $7.75 $1,596
Congress Asset Management Co Ma 2017-03-31 -20,197 $7.75 $-156
Cornerstone Capital Management Holdings Llc 2017-03-31 -10,297 $7.75 $-79
Cornerstone Wealth Management Llc 2017-03-31 7,783 $7.75 $60
Covington Capital Management 2017-03-31 4,141 $7.75 $32
Crawford Investment Counsel Inc 2017-03-31 -200 $7.75 $-1
Cypress Wealth Advisors Llc 2017-03-31 2,871 $7.75 $22
D A Davidson Co 2017-03-31 -37,840 $7.75 $-293
Dana Investment Advisors Inc 2017-03-31 -292 $7.75 $-2
Davidson Investment Advisors 2017-03-31 600 $7.75 $4
Davy Asset Management Ltd 2017-03-31 302 $7.75 $2
Dempze Nancy E 2017-03-31 0 $7.75 $0
Denver Investment Advisors Llc 2017-03-31 -600 $7.75 $-4
Df Dent Co Inc 2017-03-31 0 $7.75 $0
Earnest Partners Llc 2017-03-31 -493 $7.75 $-3
Echo Street Capital Management Llc 2017-03-31 -79,234 $7.75 $-614
Edgestream Partners L P 2017-03-31 8,301 $7.75 $64
Edmond De Rothschild Holding S A 2017-03-31 -3,230 $7.75 $-25
Elco Management Co Llc 2017-03-31 0 $7.75 $0
Elkhorn Investments Llc 2017-03-31 18,632 $7.75 $144
Envestnet Asset Management Inc 2017-03-31 135,982 $7.75 $1,053
Estabrook Capital Management 2017-03-31 0 $7.75 $0
Fairfield Bush Co 2017-03-31 0 $7.75 $0
Farmers National Bank 2017-03-31 -846 $7.75 $-6
Fayerweather Charles 2017-03-31 -105 $7.75 $0
Fdx Advisors Inc 2017-03-31 3,565 $7.75 $27
Fernwood Investment Management Llc 2017-03-31 -200 $7.75 $-1
Fic Capital Inc 2017-03-31 -125 $7.75 $0
Fieldpoint Private Advisors Inc 2017-03-31 -42,300 $7.75 $-327
Fiera Capital Corp 2017-03-31 270,135 $7.75 $2,093
First Foundation Advisors 2017-03-31 -417 $7.75 $-3
First Republic Investment Management Inc 2017-03-31 4,212 $7.75 $32
Flagship Harbor Advisors Llc 2017-03-31 -1,306 $7.75 $-10
Focused Wealth Management Inc 2017-03-31 0 $7.75 $0
Frontier Investment Mgmt Co 2017-03-31 327 $7.75 $2
Front Street Capital Management Inc 2017-03-31 32 $7.75 $0
Girard Securities Inc 2017-03-31 1 $7.75 $0
Glassman Wealth Services 2017-03-31 303 $7.75 $2
Glen Harbor Capital Management Llc 2017-03-31 7,280 $7.75 $56
Glg Llc 2017-03-31 24,481 $7.75 $189
Glg Partners Lp 2017-03-31 3,957 $7.75 $30
Godshalk Welsh Capital Management Inc 2017-03-31 0 $7.75 $0
Gotham Asset Management Llc 2017-03-31 -51,489 $7.75 $-399
Gratus Capital Llc 2017-03-31 -97 $7.75 $0
Green Square Capital Llc 2017-03-31 -3,706 $7.75 $-28
Green Valley Investors Llc 2017-03-31 -779 $7.75 $-6
Group One Trading L P 2017-03-31 41,633 $7.75 $322
Gsa Capital Partners Llp 2017-03-31 -18,288 $7.75 $-141
Gsb Wealth Management Llc 2017-03-31 0 $7.75 $0
Guardian Capital Lp 2017-03-31 9,306 $7.75 $72
Guggenheim Capital Llc 2017-03-31 -180,155 $7.75 $-1,396
Hamel Associates Inc 2017-03-31 32,475 $7.75 $251
Hanson Doremus Investment Management 2017-03-31 70 $7.75 $0
Hbk Sorce Advisory Llc 2017-03-31 881 $7.75 $6
Hendley Co Inc 2017-03-31 0 $7.75 $0
Heritage Way Advisors Llc 2017-03-31 1,125 $7.75 $8
Hgk Asset Management Inc 2017-03-31 99,560 $7.75 $771
Highbridge Capital Management Llc 2017-03-31 111,168 $7.75 $861
Highlander Capital Management Llc 2017-03-31 0 $7.75 $0
Hollow Brook Wealth Management Llc 2017-03-31 0 $7.75 $0
Holt Capital Advisors L L C Dba Holt Capital Partners L P 2017-03-31 0 $7.75 $0
Horizon Kinetics Llc 2017-03-31 0 $7.75 $0
Hutchin Hill Capital Lp 2017-03-31 3,600 $7.75 $27
Ifp Advisors Inc 2017-03-31 3,082 $7.75 $23
Iht Wealth Management Llc 2017-03-31 1,017 $7.75 $7
Intact Investment Management Inc 2017-03-31 -30,500 $7.75 $-236
Invictus Rg 2017-03-31 -1,871 $7.75 $-14
Ironsides Asset Advisors Llc 2017-03-31 -6,000 $7.75 $-46
Ironwood Investment Counsel Llc 2017-03-31 -23 $7.75 $0
Israel Discount Bank Of New York 2017-03-31 -250 $7.75 $-1
Itau Unibanco Holding S A 2017-03-31 -1,580 $7.75 $-12
Jackson Grant Investment Advisers Inc 2017-03-31 37 $7.75 $0
Jacobs Levy Equity Management Inc 2017-03-31 -7,770 $7.75 $-60
Jane Street Group Llc 2017-03-31 43,044 $7.75 $333
Jarislowsky Fraser Ltd 2017-03-31 -61,483 $7.75 $-476
Johnson Investment Counsel Inc 2017-03-31 -335 $7.75 $-2
Kentucky Retirement Systems 2017-03-31 -7,895 $7.75 $-61
Kentucky Retirement Systems Insurance Trust Fund 2017-03-31 -4,905 $7.75 $-38
Kernodle Katon Asset Management Group Llc 2017-03-31 -1,340 $7.75 $-10
Kidder Stephen W 2017-03-31 0 $7.75 $0
Kimelman Baird Llc 2017-03-31 -800 $7.75 $-6
Kingdon Capital Management L L C 2017-03-31 76,500 $7.75 $592
Kingfisher Capital Llc 2017-03-31 1 $7.75 $0
Krilogy Financial Llc 2017-03-31 0 $7.75 $0
Ladenburg Thalmann Financial Services Inc 2017-03-31 -3,371 $7.75 $-26
Lebenthal Asset Management Llc 2017-03-31 315 $7.75 $2
Lee Financial Corp 2017-03-31 0 $7.75 $0
Level Four Advisory Services Llc 2017-03-31 454 $7.75 $3
Loomis Sayles Co L P 2017-03-31 558,174 $7.75 $4,325
Lowe Brockenbrough Co Inc 2017-03-31 0 $7.75 $0
Madison Investment Holdings Inc 2017-03-31 0 $7.75 $0
Mariner Wealth Advisors Llc 2017-03-31 -34,747 $7.75 $-269
Mason Street Advisors Llc 2017-03-31 414 $7.75 $3
Meadow Creek Investment Management Llc 2017-03-31 5,720 $7.75 $44
M Holdings Securities Inc 2017-03-31 21 $7.75 $0
Mogy Joel R Investment Counsel Inc 2017-03-31 0 $7.75 $0
Moloney Securities Asset Management Llc 2017-03-31 3,600 $7.75 $27
Monroe Bank Trust Mi 2017-03-31 0 $7.75 $0
Montecito Bank Trust 2017-03-31 -850 $7.75 $-6
Mv Capital Management Inc 2017-03-31 1,600 $7.75 $12
National Asset Management Inc 2017-03-31 1,497 $7.75 $11
New York Life Trust Co 2017-03-31 -96 $7.75 $0
Northern Oak Wealth Management Inc 2017-03-31 -648 $7.75 $-5
Northwestern Mutual Investment Management Company Llc 2017-03-31 86,112 $7.75 $667
Northwestern Mutual Wealth Management Co 2017-03-31 2,656 $7.75 $20
Notis-Mcconarty Edward 2017-03-31 675 $7.75 $5
Omni Partners Llp 2017-03-31 50,000 $7.75 $387
Overbrook Management Corp 2017-03-31 0 $7.75 $0
Pacific Center For Financial Services 2017-03-31 0 $7.75 $0
Page Arthur B 2017-03-31 -5 $7.75 $0
Paloma Partners Management Co 2017-03-31 -148,278 $7.75 $-1,149
Patriot Financial Group Insurance Agency Llc 2017-03-31 1 $7.75 $0
Peninsula Asset Management Inc 2017-03-31 0 $7.75 $0
Perigon Wealth Management Llc 2017-03-31 113 $7.75 $0
Piedmont Investment Advisors Llc 2017-03-31 1,576 $7.75 $12
Pittenger Anderson Inc 2017-03-31 0 $7.75 $0
Plancorp Llc 2017-03-31 0 $7.75 $0
Proficio Capital Partners Llc 2017-03-31 207 $7.75 $1
Prospector Partners Llc 2017-03-31 -300 $7.75 $-2
Public Employees Retirement System Of Ohio 2017-03-31 0 $7.75 $0
Puzo Michael J 2017-03-31 -25 $7.75 $0
Quest Investment Management Inc Or 2017-03-31 -22,698 $7.75 $-175
Raymond James Associates 2017-03-31 4,450 $7.75 $34
Reynders Mcveigh Capital Management Llc 2017-03-31 0 $7.75 $0
Riverhead Capital Management Llc 2017-03-31 22,444 $7.75 $173
River Wealth Advisors Llc 2017-03-31 -1,973 $7.75 $-15
Rocky Mountain Advisers Llc 2017-03-31 0 $7.75 $0
Rodgers Brothers Inc 2017-03-31 -250 $7.75 $-1
Rothschild Asset Management Inc 2017-03-31 -1,708 $7.75 $-13
Salem Investment Counselors Inc 2017-03-31 410 $7.75 $3
Sandhill Capital Partners Llc 2017-03-31 -1,413 $7.75 $-10
Saturna Capital Corp 2017-03-31 0 $7.75 $0
Schnieders Capital Management Llc 2017-03-31 250 $7.75 $1
Sciencast Management Lp 2017-03-31 -13,189 $7.75 $-102
Scotia Capital Inc 2017-03-31 888 $7.75 $6
Segall Bryant Hamill Llc 2017-03-31 1,374 $7.75 $10
Seven Eight Capital Lp 2017-03-31 -11,300 $7.75 $-87
Signaturefd Llc 2017-03-31 7,802 $7.75 $60
Silvercrest Asset Management Group Llc 2017-03-31 -1,153 $7.75 $-8
Somerville Kurt F 2017-03-31 -100 $7.75 $0
Sowell Financial Services Llc 2017-03-31 1,325 $7.75 $10
Squarepoint Ops Llc 2017-03-31 176,182 $7.75 $1,365
Srs Capital Advisors Inc 2017-03-31 325 $7.75 $2
Starboard Value Lp 2017-03-31 168,595 $7.75 $1,306
Steinberg Global Asset Management 2017-03-31 0 $7.75 $0
Sterling Capital Management Llc 2017-03-31 438 $7.75 $3
Sterling Investment Advisors Ltd 2017-03-31 0 $7.75 $0
Stifel Financial Corp 2017-03-31 2,360 $7.75 $18
Stonebridge Capital Advisors Llc 2017-03-31 -50 $7.75 $0
Strategic Financial Services Inc 2017-03-31 5 $7.75 $0
Summit Global Investments 2017-03-31 9,201 $7.75 $71
Suvretta Capital Management Llc 2017-03-31 193,650 $7.75 $1,500
Tanaka Capital Management Inc 2017-03-31 0 $7.75 $0
Taurus Asset Management Llc 2017-03-31 -1,279 $7.75 $-9
Tiverton Asset Management Llc 2017-03-31 -31,859 $7.75 $-246
Tortoise Investment Management Llc 2017-03-31 0 $7.75 $0
Two Sigma Securities Llc 2017-03-31 -22,660 $7.75 $-175
United Capital Financial Advisers Llc 2017-03-31 113,294 $7.75 $878
Vantage Investment Partners Llc 2017-03-31 77,670 $7.75 $601
Veritable L P 2017-03-31 -2,844 $7.75 $-22
Verition Fund Management Llc 2017-03-31 -18,869 $7.75 $-146
Voloridge Investment Management Llc 2017-03-31 -243,923 $7.75 $-1,890
Wallace Capital Management Inc 2017-03-31 0 $7.75 $0
Walleye Trading Llc 2017-03-31 8,456 $7.75 $65
Waters Parkerson Co Llc 2017-03-31 -100 $7.75 $0
Wayne Hummer Investments L L C 2017-03-31 7,552 $7.75 $58
Weatherly Asset Management L P 2017-03-31 -441 $7.75 $-3
Webster Bank N A 2017-03-31 625 $7.75 $4
Westover Capital Advisors Llc 2017-03-31 -810 $7.75 $-6
Westside Investment Management Inc 2017-03-31 -59 $7.75 $0
Westwood Holdings Group Inc 2017-03-31 7,532 $7.75 $58
Wimmer Associates 1 Llc 2017-03-31 -3,085 $7.75 $-23
Wunderlich Capital Managemnt 2017-03-31 -547 $7.75 $-4
Yorkbridge Wealth Partners Llc 2017-03-31 0 $7.75 $0
Zevin Asset Management Llc 2017-03-31 -42,940 $7.75 $-332